Time;durP1;ratioP1;P1;durP2;ratioP2;P2;SDS_P1;SDS_P2;PMS_P1;PMS_P2;Temp;Humidity;BMP_temperature;BMP_pressure;BME280_temperature;BME280_humidity;BME280_pressure;Samples;Min_cycle;Max_cycle;Signal;HPM_P1;HPM_P2
2021/04/23 00:00:32;;;;;;;9.70;4.13;;;17.00;30.00;;;;;;5046824;28;20439;-43
2021/04/23 00:03:01;;;;;;;7.30;3.80;;;17.00;29.90;;;;;;5047486;28;20462;-44
2021/04/23 00:05:27;;;;;;;11.00;3.83;;;16.90;29.90;;;;;;5042981;28;20451;-45
2021/04/23 00:07:53;;;;;;;5.73;3.80;;;16.90;30.00;;;;;;5042458;28;20889;-43
2021/04/23 00:10:21;;;;;;;5.83;3.63;;;16.90;30.60;;;;;;5044428;28;20447;-44
2021/04/23 00:12:48;;;;;;;7.47;4.17;;;16.90;30.40;;;;;;5047098;28;20532;-44
2021/04/23 00:15:16;;;;;;;5.73;3.30;;;16.80;29.80;;;;;;5046232;28;20450;-43
2021/04/23 00:17:42;;;;;;;7.53;3.37;;;16.80;30.30;;;;;;5039468;28;20445;-44
2021/04/23 00:20:17;;;;;;;7.13;3.50;;;16.80;29.90;;;;;;5043570;28;20753;-43
2021/04/23 00:22:44;;;;;;;6.40;4.40;;;16.70;30.10;;;;;;5039498;28;20648;-44
2021/04/23 00:25:11;;;;;;;5.50;3.37;;;16.70;30.90;;;;;;5042052;28;20431;-43
2021/04/23 00:27:36;;;;;;;4.37;3.70;;;16.70;30.50;;;;;;5042520;28;20457;-43
2021/04/23 00:30:05;;;;;;;8.80;4.10;;;16.70;30.20;;;;;;5049457;28;20435;-44
2021/04/23 00:35:15;;;;;;;7.00;3.60;;;16.60;31.00;;;;;;5046176;28;20493;-43
2021/04/23 00:37:46;;;;;;;5.10;3.83;;;16.60;30.30;;;;;;5046617;28;20437;-44
2021/04/23 00:40:14;;;;;;;5.37;3.40;;;16.50;31.30;;;;;;5042562;28;20447;-43
2021/04/23 00:42:39;;;;;;;4.63;3.30;;;16.40;31.20;;;;;;5043042;28;20476;-43
2021/04/23 00:45:06;;;;;;;6.73;4.17;;;16.50;31.00;;;;;;5042089;28;20449;-45
2021/04/23 00:47:31;;;;;;;5.43;3.30;;;16.40;30.30;;;;;;5050126;28;20196;-44
2021/04/23 00:49:57;;;;;;;4.97;3.00;;;16.30;30.60;;;;;;5044732;28;20458;-44
2021/04/23 00:52:22;;;;;;;6.57;3.90;;;16.20;32.00;;;;;;5048064;28;20208;-46
2021/04/23 00:54:48;;;;;;;5.50;3.10;;;16.20;31.70;;;;;;5045941;28;20580;-45
2021/04/23 00:57:14;;;;;;;8.07;3.73;;;16.20;31.80;;;;;;5050989;28;20231;-43
2021/04/23 00:59:39;;;;;;;5.13;4.00;;;16.20;31.50;;;;;;5049576;28;20196;-44
2021/04/23 01:02:10;;;;;;;5.33;3.57;;;16.30;31.70;;;;;;5047294;28;20310;-43
2021/04/23 01:04:36;;;;;;;7.00;3.83;;;16.30;32.60;;;;;;5048231;28;20196;-43
2021/04/23 01:07:02;;;;;;;4.70;3.27;;;16.30;32.00;;;;;;5053760;28;20457;-45
2021/04/23 01:09:29;;;;;;;5.23;3.30;;;16.30;32.00;;;;;;5050574;28;20814;-46
2021/04/23 01:11:57;;;;;;;5.23;4.10;;;16.20;31.30;;;;;;5048779;28;20648;-44
2021/04/23 01:14:23;;;;;;;8.53;3.97;;;16.20;31.30;;;;;;5050900;28;20862;-45
2021/04/23 01:16:49;;;;;;;6.50;3.70;;;16.10;31.90;;;;;;5050375;28;20443;-43
2021/04/23 01:19:18;;;;;;;5.00;3.50;;;16.10;31.30;;;;;;5040984;28;20197;-44
2021/04/23 01:21:44;;;;;;;7.07;4.33;;;15.90;31.70;;;;;;5042967;28;20495;-43
2021/04/23 01:24:11;;;;;;;5.73;4.00;;;15.90;32.70;;;;;;5045543;28;20439;-44
2021/04/23 01:26:40;;;;;;;4.33;3.23;;;15.90;33.90;;;;;;5049525;28;20535;-43
2021/04/23 01:29:07;;;;;;;5.93;3.37;;;15.90;32.80;;;;;;5049834;28;20471;-43
2021/04/23 01:31:37;;;;;;;5.77;2.90;;;15.80;32.50;;;;;;5039230;28;20432;-45
2021/04/23 01:34:16;;;;;;;4.97;2.93;;;15.80;33.00;;;;;;5046776;28;20942;-44
2021/04/23 01:36:43;;;;;;;3.30;3.00;;;15.80;32.90;;;;;;5045961;28;20454;-43
2021/04/23 01:39:12;;;;;;;5.20;3.20;;;15.80;32.90;;;;;;5052762;28;20512;-43
2021/04/23 01:41:38;;;;;;;5.10;3.60;;;15.80;33.00;;;;;;5041310;28;20484;-42
2021/04/23 01:44:05;;;;;;;6.97;5.10;;;15.70;32.90;;;;;;5048119;28;20444;-43
2021/04/23 01:46:33;;;;;;;7.50;3.10;;;15.80;32.70;;;;;;5049857;28;20199;-45
2021/04/23 01:49:02;;;;;;;5.53;2.87;;;15.80;32.90;;;;;;5042945;28;20634;-43
2021/04/23 01:51:27;;;;;;;3.70;3.23;;;15.70;33.10;;;;;;5045113;28;20540;-43
2021/04/23 01:53:53;;;;;;;5.80;3.00;;;15.60;32.80;;;;;;5048917;28;20512;-43
2021/04/23 01:56:19;;;;;;;4.90;3.87;;;15.50;33.10;;;;;;5047810;28;20443;-43
2021/04/23 01:58:45;;;;;;;8.23;3.50;;;15.40;33.20;;;;;;5051430;28;20786;-43
2021/04/23 02:01:10;;;;;;;7.20;3.37;;;15.40;33.30;;;;;;5048665;28;20217;-44
2021/04/23 02:03:38;;;;;;;6.63;3.20;;;15.40;33.90;;;;;;5045020;28;20636;-43
2021/04/23 02:06:04;;;;;;;4.47;3.03;;;15.40;33.60;;;;;;5044439;28;20687;-43
2021/04/23 02:08:30;;;;;;;5.07;3.50;;;15.40;33.10;;;;;;5051140;28;20447;-43
2021/04/23 02:11:17;;;;;;;7.97;3.90;;;15.40;32.80;;;;;;5049472;28;20819;-47
2021/04/23 02:13:45;;;;;;;4.87;2.93;;;15.40;32.90;;;;;;5045721;28;20451;-44
2021/04/23 02:16:13;;;;;;;4.93;3.30;;;15.40;33.60;;;;;;5048441;28;20427;-43
2021/04/23 02:18:39;;;;;;;6.23;3.60;;;15.50;33.50;;;;;;5045831;28;20489;-43
2021/04/23 02:21:07;;;;;;;7.87;3.70;;;15.50;33.30;;;;;;5043352;28;20475;-44
2021/04/23 02:23:33;;;;;;;5.50;3.10;;;15.50;32.90;;;;;;5042859;28;20192;-42
2021/04/23 02:25:59;;;;;;;7.07;3.83;;;15.50;32.90;;;;;;5047204;28;20447;-44
2021/04/23 02:28:25;;;;;;;7.50;3.20;;;15.50;33.90;;;;;;5049422;28;21197;-43
2021/04/23 02:30:59;;;;;;;8.70;3.43;;;15.50;34.10;;;;;;5046133;28;20196;-45
2021/04/23 02:33:25;;;;;;;8.50;3.67;;;15.60;34.00;;;;;;5048882;28;20447;-43
2021/04/23 02:35:53;;;;;;;4.00;3.20;;;15.50;33.20;;;;;;5048245;28;20478;-43
2021/04/23 02:38:19;;;;;;;4.83;3.40;;;15.50;32.50;;;;;;5050336;28;20435;-43
2021/04/23 02:40:46;;;;;;;4.30;3.30;;;15.40;32.70;;;;;;5048181;28;20472;-43
2021/04/23 02:43:16;;;;;;;9.63;3.80;;;15.40;33.30;;;;;;5044202;28;20836;-43
2021/04/23 02:45:44;;;;;;;8.53;4.20;;;15.40;33.60;;;;;;5049152;28;21267;-45
2021/04/23 02:48:11;;;;;;;6.60;3.47;;;15.50;33.40;;;;;;5049222;28;20934;-43
2021/04/23 02:50:39;;;;;;;4.10;3.30;;;15.50;33.40;;;;;;5040769;28;20431;-44
2021/04/23 02:53:06;;;;;;;5.03;3.50;;;15.40;33.90;;;;;;5041301;28;20451;-43
2021/04/23 02:55:33;;;;;;;3.50;3.20;;;15.40;34.10;;;;;;5043606;28;20830;-43
2021/04/23 02:58:13;;;;;;;6.10;3.40;;;15.50;33.50;;;;;;5048556;28;20556;-43
2021/04/23 03:00:44;;;;;;;4.90;3.23;;;15.30;33.40;;;;;;5048009;28;20591;-43
2021/04/23 03:03:11;;;;;;;5.87;3.70;;;15.40;33.40;;;;;;5045912;28;20550;-43
2021/04/23 03:05:38;;;;;;;5.10;3.27;;;15.40;33.80;;;;;;5045802;28;20439;-46
2021/04/23 03:08:05;;;;;;;4.77;3.27;;;15.30;34.20;;;;;;5039026;28;20443;-43
2021/04/23 03:10:34;;;;;;;5.30;4.00;;;15.30;34.60;;;;;;5050693;28;20435;-43
2021/04/23 03:13:12;;;;;;;5.47;4.17;;;15.30;33.40;;;;;;5048132;28;20925;-43
2021/04/23 03:15:38;;;;;;;4.70;3.50;;;15.30;33.50;;;;;;5039644;28;20461;-43
2021/04/23 03:18:05;;;;;;;6.00;3.67;;;15.20;33.70;;;;;;5045388;28;20538;-43
2021/04/23 03:20:31;;;;;;;6.63;3.57;;;15.20;33.90;;;;;;5043706;28;20563;-44
2021/04/23 03:22:57;;;;;;;3.97;2.93;;;15.10;34.10;;;;;;5046141;28;20574;-43
2021/04/23 03:25:25;;;;;;;4.30;3.60;;;15.10;33.40;;;;;;5041750;28;21052;-44
2021/04/23 03:27:51;;;;;;;6.60;3.03;;;15.00;33.60;;;;;;5041884;28;20798;-43
2021/04/23 03:30:21;;;;;;;4.47;3.37;;;15.00;34.40;;;;;;5047232;28;20516;-43
2021/04/23 03:32:48;;;;;;;7.03;3.97;;;15.00;34.70;;;;;;5045140;28;20439;-43
2021/04/23 03:35:14;;;;;;;6.60;3.93;;;15.10;34.90;;;;;;5043479;28;20475;-44
2021/04/23 03:37:43;;;;;;;6.37;3.40;;;15.10;34.80;;;;;;5039615;28;20840;-43
2021/04/23 03:40:11;;;;;;;7.90;4.30;;;15.10;34.40;;;;;;5045615;28;20461;-43
2021/04/23 03:42:38;;;;;;;5.03;3.57;;;15.10;34.00;;;;;;5049714;28;20978;-43
2021/04/23 03:45:05;;;;;;;6.87;3.70;;;15.00;33.80;;;;;;5043993;28;20447;-43
2021/04/23 03:47:30;;;;;;;7.37;3.57;;;15.00;33.50;;;;;;5038605;28;21014;-43
2021/04/23 03:49:56;;;;;;;4.50;3.50;;;15.00;33.80;;;;;;5042592;28;20439;-43
2021/04/23 03:52:22;;;;;;;5.00;3.80;;;14.90;33.70;;;;;;5040958;28;20648;-44
2021/04/23 03:54:47;;;;;;;4.77;4.27;;;15.00;34.80;;;;;;5037992;28;20196;-48
2021/04/23 03:57:14;;;;;;;5.90;4.20;;;14.90;34.60;;;;;;5047948;28;20207;-44
2021/04/23 03:59:40;;;;;;;5.40;3.70;;;14.70;33.70;;;;;;5048961;28;20249;-47
2021/04/23 04:02:06;;;;;;;8.60;4.40;;;14.30;33.60;;;;;;5041467;28;20981;-45
2021/04/23 04:04:32;;;;;;;4.17;3.50;;;13.90;34.00;;;;;;5046291;28;20193;-46
2021/04/23 04:06:58;;;;;;;5.27;3.80;;;13.40;34.80;;;;;;5043816;28;20841;-45
2021/04/23 04:09:23;;;;;;;9.13;3.73;;;13.00;35.40;;;;;;5050416;28;20204;-46
2021/04/23 04:11:49;;;;;;;5.83;3.47;;;12.60;36.30;;;;;;5046256;28;20656;-46
2021/04/23 04:14:15;;;;;;;5.40;3.40;;;12.30;37.00;;;;;;5047402;28;20843;-45
2021/04/23 04:16:40;;;;;;;11.60;4.50;;;12.00;38.00;;;;;;5050214;28;20196;-45
2021/04/23 04:19:06;;;;;;;8.47;3.93;;;11.60;38.30;;;;;;5047034;28;20204;-48
2021/04/23 04:21:33;;;;;;;5.53;3.40;;;11.20;39.30;;;;;;5048070;28;20228;-46
2021/04/23 04:23:58;;;;;;;7.63;3.40;;;10.80;40.00;;;;;;5046467;28;20204;-46
2021/04/23 04:26:24;;;;;;;8.93;3.70;;;10.40;40.70;;;;;;5048972;28;20439;-49
2021/04/23 04:28:50;;;;;;;4.73;3.67;;;10.20;41.50;;;;;;5045754;28;20609;-49
2021/04/23 04:31:15;;;;;;;5.03;4.53;;;9.90;43.00;;;;;;5050711;28;20924;-45
2021/04/23 04:33:41;;;;;;;7.00;5.17;;;9.70;43.70;;;;;;5046862;28;20200;-46
2021/04/23 04:36:07;;;;;;;8.43;4.60;;;9.80;43.60;;;;;;5051058;28;20585;-45
2021/04/23 04:38:33;;;;;;;10.70;6.63;;;9.70;43.70;;;;;;5052418;28;20478;-45
2021/04/23 04:40:59;;;;;;;8.40;4.73;;;9.70;43.60;;;;;;5046061;28;20207;-46
2021/04/23 04:43:25;;;;;;;6.30;4.00;;;9.70;44.00;;;;;;5048981;28;20527;-48
2021/04/23 04:45:51;;;;;;;6.27;3.83;;;9.80;43.50;;;;;;5051223;28;20447;-44
2021/04/23 04:48:17;;;;;;;6.13;4.00;;;9.80;43.20;;;;;;5048324;28;20458;-45
2021/04/23 04:50:50;;;;;;;4.87;3.40;;;9.90;43.20;;;;;;5049524;28;20228;-45
2021/04/23 04:53:16;;;;;;;6.83;3.63;;;9.80;43.50;;;;;;5046229;28;20446;-46
2021/04/23 04:55:44;;;;;;;5.80;3.30;;;9.80;43.60;;;;;;5047121;28;20984;-45
2021/04/23 04:58:11;;;;;;;10.80;4.60;;;9.70;43.70;;;;;;5046063;28;20446;-44
2021/04/23 05:00:38;;;;;;;7.77;3.87;;;9.70;43.90;;;;;;5042342;28;20447;-43
2021/04/23 05:03:05;;;;;;;11.07;5.03;;;9.80;43.90;;;;;;5049779;28;20494;-42
2021/04/23 05:05:31;;;;;;;8.47;3.43;;;9.90;46.50;;;;;;5044553;28;20442;-43
2021/04/23 05:07:57;;;;;;;9.33;4.63;;;10.20;46.00;;;;;;5049409;28;20941;-43
2021/04/23 05:10:23;;;;;;;6.00;3.10;;;10.60;44.10;;;;;;5055071;28;20513;-42
2021/04/23 05:12:49;;;;;;;6.43;3.90;;;10.80;42.80;;;;;;5051826;28;20266;-43
2021/04/23 05:15:16;;;;;;;5.47;3.50;;;10.90;42.50;;;;;;5046619;28;20193;-43
2021/04/23 05:17:43;;;;;;;7.43;3.77;;;11.10;42.60;;;;;;5041868;28;20919;-44
2021/04/23 05:20:10;;;;;;;10.27;3.70;;;11.30;44.40;;;;;;5045579;28;20465;-44
2021/04/23 05:22:36;;;;;;;5.57;3.33;;;11.70;42.60;;;;;;5043679;28;20812;-45
2021/04/23 05:25:07;;;;;;;10.43;3.67;;;12.20;40.50;;;;;;5047389;28;20450;-44
2021/04/23 05:27:33;;;;;;;5.87;3.73;;;12.60;39.10;;;;;;5045184;28;20204;-46
2021/04/23 05:29:59;;;;;;;8.23;4.00;;;13.00;38.00;;;;;;5047764;28;20891;-44
2021/04/23 05:32:26;;;;;;;6.50;3.50;;;13.20;37.20;;;;;;5046003;28;20678;-43
2021/04/23 05:34:51;;;;;;;6.07;3.80;;;13.50;36.80;;;;;;5046153;28;20536;-45
2021/04/23 05:37:17;;;;;;;5.37;3.67;;;13.70;36.40;;;;;;5045019;28;20432;-44
2021/04/23 05:39:44;;;;;;;5.50;3.70;;;13.80;36.00;;;;;;5049371;28;20188;-43
2021/04/23 05:42:11;;;;;;;6.00;3.30;;;14.00;35.70;;;;;;5046496;28;20707;-44
2021/04/23 05:44:37;;;;;;;5.70;4.00;;;14.10;35.60;;;;;;5050277;28;20427;-44
2021/04/23 05:47:04;;;;;;;8.67;4.37;;;14.20;35.40;;;;;;5047523;28;20443;-43
2021/04/23 05:49:31;;;;;;;7.83;3.93;;;14.40;35.40;;;;;;5052161;28;20636;-43
2021/04/23 05:51:57;;;;;;;5.00;3.80;;;14.40;35.10;;;;;;5049936;28;20447;-44
2021/04/23 05:54:24;;;;;;;4.97;3.70;;;14.60;34.90;;;;;;5049781;28;20427;-44
2021/04/23 05:56:49;;;;;;;4.10;3.60;;;14.70;34.80;;;;;;5052711;28;20430;-46
2021/04/23 05:59:15;;;;;;;9.03;4.30;;;14.70;34.70;;;;;;5042536;28;20438;-44
2021/04/23 06:01:41;;;;;;;5.17;3.90;;;14.80;34.50;;;;;;5046388;28;20212;-44
2021/04/23 06:04:06;;;;;;;7.03;4.77;;;15.00;34.40;;;;;;5051604;28;20266;-43
2021/04/23 06:06:32;;;;;;;6.27;4.13;;;15.00;34.30;;;;;;5045365;28;20189;-43
2021/04/23 06:08:59;;;;;;;6.93;4.50;;;15.00;34.10;;;;;;5033143;28;20612;-47
2021/04/23 06:11:25;;;;;;;6.73;4.70;;;15.00;34.10;;;;;;5048237;28;20227;-44
2021/04/23 06:13:50;;;;;;;5.83;3.63;;;15.20;34.10;;;;;;5044627;28;20566;-44
2021/04/23 06:16:16;;;;;;;6.80;3.87;;;15.20;33.90;;;;;;5038302;28;20938;-43
2021/04/23 06:18:43;;;;;;;7.03;4.70;;;15.30;33.90;;;;;;5048560;28;20312;-44
2021/04/23 06:21:09;;;;;;;5.63;3.33;;;15.40;33.90;;;;;;5045167;28;20219;-45
2021/04/23 06:23:37;;;;;;;7.90;6.43;;;15.40;33.80;;;;;;5050747;28;20847;-47
2021/04/23 06:26:03;;;;;;;6.20;4.23;;;15.50;33.70;;;;;;5048703;28;20445;-45
2021/04/23 06:28:29;;;;;;;9.27;3.63;;;15.70;33.50;;;;;;5048872;28;20435;-45
2021/04/23 06:30:56;;;;;;;11.67;4.10;;;15.80;33.40;;;;;;5030570;28;20432;-44
2021/04/23 06:33:25;;;;;;;7.23;3.70;;;15.90;33.30;;;;;;5033096;28;20531;-43
2021/04/23 06:35:50;;;;;;;5.73;3.70;;;16.00;33.00;;;;;;5051326;28;20516;-44
2021/04/23 06:38:16;;;;;;;7.47;3.40;;;16.20;32.50;;;;;;5050228;28;20783;-46
2021/04/23 06:40:43;;;;;;;4.30;3.90;;;16.30;32.30;;;;;;5042285;28;20358;-44
2021/04/23 06:43:09;;;;;;;11.00;4.20;;;16.40;32.10;;;;;;5035995;28;20480;-43
2021/04/23 06:45:35;;;;;;;7.57;3.70;;;16.50;32.00;;;;;;5040234;28;20504;-43
2021/04/23 06:48:01;;;;;;;5.93;3.70;;;16.50;31.70;;;;;;5050953;28;20538;-46
2021/04/23 06:50:28;;;;;;;6.43;3.90;;;16.50;31.70;;;;;;5051187;28;20530;-43
2021/04/23 06:52:54;;;;;;;6.50;3.97;;;16.60;31.60;;;;;;5051707;28;20471;-45
2021/04/23 06:55:21;;;;;;;5.67;3.70;;;16.70;31.40;;;;;;5026171;28;20471;-46
2021/04/23 06:57:47;;;;;;;7.93;3.80;;;16.80;31.20;;;;;;5047951;28;20934;-43
2021/04/23 07:00:22;;;;;;;9.27;3.90;;;16.90;31.20;;;;;;5042995;28;20450;-44
2021/04/23 07:02:48;;;;;;;7.70;4.50;;;17.00;31.80;;;;;;5049111;28;20482;-48
2021/04/23 07:05:15;;;;;;;6.70;4.87;;;17.00;31.10;;;;;;5045016;28;20485;-45
2021/04/23 07:07:41;;;;;;;7.67;4.70;;;17.20;31.10;;;;;;5049894;28;20431;-44
2021/04/23 07:10:11;;;;;;;8.27;5.17;;;17.30;31.00;;;;;;5041605;28;20434;-43
2021/04/23 07:12:37;;;;;;;9.63;4.80;;;17.40;30.80;;;;;;5049609;28;20849;-44
2021/04/23 07:15:04;;;;;;;8.40;4.70;;;17.50;30.70;;;;;;5050731;28;20434;-44
2021/04/23 07:17:30;;;;;;;7.90;4.53;;;17.70;30.50;;;;;;5046680;28;20424;-43
2021/04/23 07:19:55;;;;;;;9.93;5.53;;;17.80;30.40;;;;;;5041570;28;20436;-44
2021/04/23 07:22:21;;;;;;;8.27;4.57;;;17.90;30.20;;;;;;5038849;28;20228;-44
2021/04/23 07:24:46;;;;;;;10.53;5.37;;;17.90;30.00;;;;;;5047387;28;20197;-47
2021/04/23 07:27:12;;;;;;;9.13;5.60;;;17.80;29.90;;;;;;5049473;28;20609;-47
2021/04/23 07:29:38;;;;;;;12.90;4.60;;;17.70;29.90;;;;;;5050072;28;20200;-48
2021/04/23 07:32:04;;;;;;;9.00;5.43;;;17.70;29.90;;;;;;5024176;28;20241;-43
2021/04/23 07:34:30;;;;;;;7.57;4.70;;;17.80;30.00;;;;;;5048304;28;20477;-46
2021/04/23 07:36:56;;;;;;;10.30;4.67;;;18.10;30.00;;;;;;5049104;28;20438;-45
2021/04/23 07:39:26;;;;;;;7.87;4.37;;;18.30;29.50;;;;;;5048804;28;20226;-44
2021/04/23 07:41:54;;;;;;;9.50;4.03;;;18.40;29.40;;;;;;5048699;28;20296;-44
2021/04/23 07:44:22;;;;;;;5.77;3.63;;;18.60;29.00;;;;;;5045178;28;20488;-47
2021/04/23 07:46:47;;;;;;;9.20;4.57;;;18.70;29.00;;;;;;5038295;28;20420;-48
2021/04/23 07:49:14;;;;;;;5.20;4.13;;;18.70;28.90;;;;;;5050099;28;20446;-46
2021/04/23 07:51:40;;;;;;;12.93;4.17;;;18.60;29.40;;;;;;5045817;28;20666;-44
2021/04/23 07:54:07;;;;;;;5.90;3.40;;;18.70;29.60;;;;;;5050494;28;20439;-49
2021/04/23 07:56:33;;;;;;;7.43;3.67;;;18.80;29.30;;;;;;5046087;28;20477;-44
2021/04/23 07:58:59;;;;;;;8.60;4.10;;;18.80;29.00;;;;;;5044673;28;20455;-45
2021/04/23 08:01:25;;;;;;;5.60;4.00;;;18.90;28.90;;;;;;5040569;28;20572;-48
2021/04/23 08:03:50;;;;;;;10.10;4.30;;;19.10;29.60;;;;;;5038728;28;20299;-46
2021/04/23 08:06:16;;;;;;;7.63;4.20;;;19.20;29.80;;;;;;5042298;28;20201;-43
2021/04/23 08:08:41;;;;;;;7.90;4.80;;;19.30;29.30;;;;;;5045997;28;20830;-44
2021/04/23 08:11:07;;;;;;;11.80;3.80;;;19.40;29.10;;;;;;5036352;28;20636;-45
2021/04/23 08:13:33;;;;;;;8.70;4.73;;;19.40;29.20;;;;;;5045187;28;20278;-45
2021/04/23 08:15:58;;;;;;;9.30;4.20;;;19.50;28.90;;;;;;5049719;28;20258;-43
2021/04/23 08:18:25;;;;;;;6.70;4.50;;;19.40;29.40;;;;;;5038827;28;20196;-43
2021/04/23 08:20:51;;;;;;;8.10;4.30;;;19.50;29.50;;;;;;5029981;28;20223;-44
2021/04/23 08:23:16;;;;;;;11.93;4.10;;;19.50;29.40;;;;;;5030608;28;20440;-47
2021/04/23 08:25:42;;;;;;;7.47;3.47;;;19.60;29.30;;;;;;5049353;28;20189;-46
2021/04/23 08:28:08;;;;;;;10.40;3.87;;;19.70;28.90;;;;;;5050148;28;20197;-45
2021/04/23 08:30:34;;;;;;;7.83;4.17;;;19.80;29.30;;;;;;5050243;28;20196;-46
2021/04/23 08:32:59;;;;;;;9.53;3.73;;;19.80;28.90;;;;;;5046793;28;20227;-49
2021/04/23 08:35:25;;;;;;;6.43;3.70;;;19.90;29.20;;;;;;5044576;28;20247;-44
2021/04/23 08:37:52;;;;;;;8.97;4.67;;;20.00;29.10;;;;;;5047163;28;20571;-44
2021/04/23 08:40:20;;;;;;;6.33;4.00;;;20.20;28.90;;;;;;5046761;28;20481;-47
2021/04/23 08:42:47;;;;;;;9.13;5.47;;;20.40;28.90;;;;;;5047814;28;20486;-45
2021/04/23 08:45:15;;;;;;;6.53;4.50;;;20.50;28.40;;;;;;5049443;28;20438;-46
2021/04/23 08:47:43;;;;;;;7.07;4.80;;;20.60;28.10;;;;;;5047728;28;20431;-45
2021/04/23 08:50:09;;;;;;;7.67;4.60;;;20.50;27.70;;;;;;5048609;28;20496;-45
2021/04/23 08:52:36;;;;;;;7.53;5.07;;;20.40;28.10;;;;;;5044463;28;20435;-48
2021/04/23 08:55:03;;;;;;;12.57;5.20;;;20.30;28.60;;;;;;5040644;28;20435;-43
2021/04/23 08:57:29;;;;;;;8.97;5.83;;;20.30;28.40;;;;;;5034168;28;20435;-47
2021/04/23 08:59:55;;;;;;;8.33;4.43;;;20.20;28.20;;;;;;5030182;28;21219;-44
2021/04/23 09:02:20;;;;;;;8.43;4.87;;;20.20;28.60;;;;;;5030520;28;20271;-44
2021/04/23 09:04:47;;;;;;;11.27;5.30;;;20.30;29.10;;;;;;5030917;28;20189;-43
2021/04/23 09:07:12;;;;;;;7.37;4.87;;;20.50;29.40;;;;;;5040587;28;20706;-44
2021/04/23 09:09:43;;;;;;;13.43;5.20;;;20.70;28.50;;;;;;5053537;28;20510;-46
2021/04/23 09:12:27;;;;;;;9.50;5.30;;;20.70;27.80;;;;;;5046467;28;20204;-45
2021/04/23 09:14:55;;;;;;;6.80;5.10;;;20.70;27.20;;;;;;5032350;28;20427;-46
2021/04/23 09:17:23;;;;;;;12.73;5.20;;;20.70;27.80;;;;;;5035107;28;20446;-45
2021/04/23 09:19:50;;;;;;;8.70;4.20;;;20.80;28.70;;;;;;5043555;28;20435;-47
2021/04/23 09:22:25;;;;;;;9.90;5.57;;;21.10;28.30;;;;;;5051111;28;20838;-45
2021/04/23 09:25:03;;;;;;;7.50;4.80;;;21.30;28.10;;;;;;5042665;28;20467;-44
2021/04/23 09:27:34;;;;;;;8.90;4.17;;;21.60;27.80;;;;;;5038179;28;21602;-43
2021/04/23 09:30:04;;;;;;;9.77;4.93;;;21.90;27.70;;;;;;5050578;28;20826;-44
2021/04/23 09:32:40;;;;;;;9.60;4.37;;;22.10;27.50;;;;;;5040568;28;20458;-44
2021/04/23 09:35:18;;;;;;;7.50;4.70;;;22.30;26.30;;;;;;5045466;28;20467;-44
2021/04/23 09:37:53;;;;;;;6.87;4.13;;;22.40;26.00;;;;;;5042589;28;21008;-44
2021/04/23 09:40:21;;;;;;;6.43;3.63;;;22.40;26.70;;;;;;5045176;28;20438;-44
2021/04/23 09:42:55;;;;;;;10.73;5.10;;;22.50;26.90;;;;;;5051102;28;20485;-44
2021/04/23 09:45:29;;;;;;;6.30;4.20;;;22.60;26.60;;;;;;5040906;28;20447;-44
2021/04/23 09:47:55;;;;;;;10.03;5.50;;;22.90;27.70;;;;;;5047379;28;21109;-44
2021/04/23 09:50:27;;;;;;;10.13;4.50;;;23.10;26.40;;;;;;5047979;28;20478;-47
2021/04/23 09:52:55;;;;;;;9.40;5.30;;;23.30;25.10;;;;;;5043820;28;20437;-45
2021/04/23 09:55:23;;;;;;;17.93;8.57;;;23.40;25.70;;;;;;5045115;28;20427;-45
2021/04/23 09:57:54;;;;;;;14.07;6.37;;;23.40;26.20;;;;;;5048131;28;20440;-45
2021/04/23 10:00:25;;;;;;;11.77;5.30;;;23.50;26.20;;;;;;5040151;28;20463;-44
2021/04/23 10:02:56;;;;;;;6.70;4.33;;;23.70;25.30;;;;;;5046992;28;20534;-48
2021/04/23 10:05:29;;;;;;;9.73;5.20;;;23.80;25.40;;;;;;5040220;28;20875;-44
2021/04/23 10:07:55;;;;;;;9.67;5.53;;;23.90;26.10;;;;;;5048129;28;20432;-45
2021/04/23 10:10:21;;;;;;;12.40;5.60;;;24.00;26.20;;;;;;5048974;28;20434;-45
2021/04/23 10:12:55;;;;;;;7.90;4.87;;;24.10;25.90;;;;;;5051496;28;20231;-44
2021/04/23 10:15:32;;;;;;;8.63;5.20;;;24.30;25.70;;;;;;5044251;28;20275;-47
2021/04/23 10:18:09;;;;;;;8.70;5.63;;;24.40;25.10;;;;;;5049568;28;20450;-46
2021/04/23 10:20:36;;;;;;;10.17;5.90;;;24.40;25.90;;;;;;5032875;28;20852;-49
2021/04/23 10:23:05;;;;;;;9.53;5.10;;;24.50;25.90;;;;;;5049241;28;20479;-44
2021/04/23 10:25:32;;;;;;;8.13;5.23;;;24.60;26.70;;;;;;5046731;28;20435;-45
2021/04/23 10:28:00;;;;;;;7.70;5.43;;;24.80;25.10;;;;;;5048145;28;20443;-46
2021/04/23 10:30:30;;;;;;;8.60;5.00;;;24.90;25.00;;;;;;5046709;28;20832;-46
2021/04/23 10:32:58;;;;;;;12.67;7.63;;;25.10;24.90;;;;;;5038681;28;20432;-48
2021/04/23 10:35:24;;;;;;;12.43;6.70;;;25.10;24.80;;;;;;5050696;28;20474;-46
2021/04/23 10:37:51;;;;;;;10.77;6.20;;;25.20;24.80;;;;;;5046313;28;20435;-47
2021/04/23 10:40:20;;;;;;;13.60;6.40;;;25.20;25.20;;;;;;5049832;28;20450;-45
2021/04/23 10:42:50;;;;;;;11.07;5.23;;;25.30;24.80;;;;;;5039056;28;21046;-46
2021/04/23 10:45:22;;;;;;;11.80;5.10;;;25.40;24.60;;;;;;5045393;28;20431;-45
2021/04/23 10:47:49;;;;;;;11.53;5.47;;;25.40;25.00;;;;;;5045310;28;20949;-45
2021/04/23 10:50:19;;;;;;;10.23;5.33;;;25.70;24.80;;;;;;5049496;28;20439;-47
2021/04/23 10:53:04;;;;;;;8.80;5.00;;;25.90;23.40;;;;;;5050002;28;20427;-46
2021/04/23 10:55:37;;;;;;;11.40;4.53;;;26.00;24.30;;;;;;5046624;28;20454;-47
2021/04/23 10:58:03;;;;;;;6.60;5.00;;;26.10;23.90;;;;;;5049490;28;20851;-47
2021/04/23 11:00:38;;;;;;;8.53;5.63;;;26.10;23.40;;;;;;5046885;28;20435;-44
2021/04/23 11:03:35;;;;;;;11.13;6.47;;;26.10;23.40;;;;;;5045733;28;20234;-46
2021/04/23 11:06:05;;;;;;;8.90;5.53;;;26.20;23.20;;;;;;5042236;28;20434;-48
2021/04/23 11:08:33;;;;;;;12.67;5.73;;;26.20;23.00;;;;;;5050987;28;20475;-44
2021/04/23 11:13:30;;;;;;;9.07;4.80;;;26.20;23.10;;;;;;5046204;28;20447;-47
2021/04/23 11:16:17;;;;;;;6.83;4.93;;;26.00;24.40;;;;;;5041259;28;20446;-44
2021/04/23 11:18:56;;;;;;;5.40;4.50;;;26.20;22.70;;;;;;5048799;28;20500;-48
2021/04/23 11:21:31;;;;;;;10.07;4.70;;;26.20;23.50;;;;;;5050031;28;20505;-44
2021/04/23 11:24:21;;;;;;;10.40;6.63;;;26.40;24.20;;;;;;5046782;28;20473;-45
2021/04/23 11:29:32;;;;;;;9.10;4.87;;;26.50;22.80;;;;;;5046595;28;20447;-46
2021/04/23 11:32:19;;;;;;;7.80;5.20;;;26.50;22.10;;;;;;5043411;28;20447;-45
2021/04/23 11:35:16;;;;;;;9.93;5.40;;;26.40;22.60;;;;;;5048105;28;20489;-48
2021/04/23 11:37:41;;;;;;;8.53;5.73;;;26.20;22.20;;;;;;5034487;28;20977;-44
2021/04/23 11:40:13;;;;;;;7.90;5.30;;;26.30;22.00;;;;;;5045744;28;20443;-45
2021/04/23 11:42:44;;;;;;;8.17;4.20;;;26.10;22.80;;;;;;5049733;28;20278;-44
2021/04/23 11:45:17;;;;;;;13.20;6.23;;;26.10;23.10;;;;;;5038648;28;20447;-44
2021/04/23 11:47:42;;;;;;;9.23;5.87;;;26.10;22.60;;;;;;5040222;28;20997;-46
2021/04/23 11:50:30;;;;;;;9.03;5.23;;;26.10;23.20;;;;;;5044730;28;20438;-44
2021/04/23 11:53:03;;;;;;;8.07;5.63;;;26.20;22.60;;;;;;5041087;28;20181;-44
2021/04/23 11:55:31;;;;;;;10.17;5.00;;;26.30;22.60;;;;;;5036421;28;20486;-44
2021/04/23 11:58:07;;;;;;;9.00;4.90;;;26.20;22.50;;;;;;5040832;28;20470;-48
2021/04/23 12:00:34;;;;;;;7.03;4.77;;;26.50;23.20;;;;;;5042628;28;20931;-45
2021/04/23 12:03:05;;;;;;;5.70;5.00;;;26.70;22.00;;;;;;5039718;28;20997;-44
2021/04/23 12:05:37;;;;;;;7.40;5.20;;;26.80;22.20;;;;;;5040776;28;20446;-45
2021/04/23 12:08:06;;;;;;;9.57;5.30;;;26.90;22.80;;;;;;5045522;28;20450;-44
2021/04/23 12:10:34;;;;;;;5.53;4.27;;;27.00;22.60;;;;;;5042104;28;20442;-44
2021/04/23 12:12:59;;;;;;;13.33;5.00;;;27.00;23.00;;;;;;5045510;28;20439;-45
2021/04/23 12:15:31;;;;;;;9.27;4.73;;;27.00;22.20;;;;;;5037980;28;21153;-44
2021/04/23 12:17:59;;;;;;;10.03;4.90;;;27.10;21.60;;;;;;5044345;28;20197;-43
2021/04/23 12:20:26;;;;;;;8.07;5.80;;;27.30;21.40;;;;;;5046135;28;20488;-44
2021/04/23 12:22:52;;;;;;;6.97;5.00;;;27.30;21.20;;;;;;5046572;28;20486;-45
2021/04/23 12:25:28;;;;;;;6.30;5.70;;;27.40;21.20;;;;;;5047427;28;20431;-43
2021/04/23 12:27:55;;;;;;;9.93;5.10;;;27.20;20.20;;;;;;5042480;28;20442;-48
2021/04/23 12:30:32;;;;;;;11.63;5.00;;;27.00;20.90;;;;;;5046481;28;20442;-43
2021/04/23 12:32:58;;;;;;;4.70;4.03;;;27.00;21.10;;;;;;5047466;28;20435;-45
2021/04/23 12:35:45;;;;;;;11.90;5.53;;;27.10;21.30;;;;;;5045446;28;20483;-43
2021/04/23 12:38:13;;;;;;;6.50;4.60;;;27.20;20.40;;;;;;5047874;28;20450;-44
2021/04/23 12:40:44;;;;;;;8.03;5.00;;;27.00;20.30;;;;;;5051950;28;20425;-44
2021/04/23 12:43:28;;;;;;;7.60;4.53;;;26.90;20.70;;;;;;5050242;28;20486;-44
2021/04/23 12:45:56;;;;;;;9.67;5.70;;;27.00;21.00;;;;;;5052245;28;20477;-43
2021/04/23 12:48:24;;;;;;;6.00;4.60;;;27.10;20.90;;;;;;5053479;28;20419;-48
2021/04/23 12:50:53;;;;;;;8.03;5.20;;;27.10;20.80;;;;;;5050541;28;20518;-46
2021/04/23 12:53:23;;;;;;;6.57;4.53;;;27.20;20.90;;;;;;5052197;28;20423;-44
2021/04/23 12:55:52;;;;;;;6.70;4.47;;;27.40;20.90;;;;;;5050940;28;20427;-48
2021/04/23 12:58:18;;;;;;;7.20;5.33;;;27.30;20.80;;;;;;5053802;28;20513;-47